Time;durP1;ratioP1;P1;durP2;ratioP2;P2;SDS_P1;SDS_P2;PMS_P1;PMS_P2;Temp;Humidity;BMP_temperature;BMP_pressure;BME280_temperature;BME280_humidity;BME280_pressure;Samples;Min_cycle;Max_cycle;Signal;HPM_P1;HPM_P2
2021/09/10 00:02:22;;;;;;;13.35;10.50;;;;;;;18.64;85.49;100143.78;5123351;27;20397;-73
2021/09/10 00:04:48;;;;;;;13.27;10.75;;;;;;;18.65;85.23;100141.94;5126926;27;20036;-73
2021/09/10 00:07:14;;;;;;;14.23;10.88;;;;;;;18.61;85.40;100128.09;5126174;27;20028;-74
2021/09/10 00:09:39;;;;;;;15.00;10.70;;;;;;;18.65;85.83;100141.94;5126501;27;20040;-73
2021/09/10 00:12:05;;;;;;;15.40;11.32;;;;;;;18.68;85.47;100139.66;5124582;27;20084;-73
2021/09/10 00:14:30;;;;;;;16.73;11.02;;;;;;;18.66;85.73;100139.03;5123663;27;20042;-73
2021/09/10 00:16:56;;;;;;;12.18;9.90;;;;;;;18.75;85.20;100137.84;5128021;27;20023;-73
2021/09/10 00:19:21;;;;;;;13.57;10.63;;;;;;;18.66;86.19;100138.22;5122761;27;20226;-74
2021/09/10 00:21:47;;;;;;;15.52;11.73;;;;;;;18.54;86.86;100131.78;5130681;27;20026;-74
2021/09/10 00:24:13;;;;;;;20.73;12.02;;;;;;;18.39;87.62;100123.91;5124168;27;20032;-74
2021/09/10 00:26:38;;;;;;;17.73;11.93;;;;;;;18.48;87.41;100128.06;5125602;27;20099;-74
2021/09/10 00:29:04;;;;;;;19.15;11.80;;;;;;;18.42;88.40;100140.41;5128183;27;20030;-73
2021/09/10 00:31:29;;;;;;;17.48;11.45;;;;;;;18.50;88.00;100134.03;5122445;27;20034;-73
2021/09/10 00:33:55;;;;;;;14.90;10.98;;;;;;;18.48;87.99;100138.78;5114554;28;20121;-73
2021/09/10 00:36:20;;;;;;;19.00;11.38;;;;;;;18.40;87.74;100126.41;5127284;27;20486;-73
2021/09/10 00:38:46;;;;;;;14.57;10.70;;;;;;;18.53;86.24;100133.63;5104110;28;20231;-73
2021/09/10 00:41:11;;;;;;;17.25;10.82;;;;;;;18.57;86.06;100145.59;5126377;27;20035;-73
2021/09/10 00:43:37;;;;;;;18.42;10.98;;;;;;;18.48;86.12;100128.06;5123427;27;20712;-74
2021/09/10 00:46:02;;;;;;;14.85;10.73;;;;;;;18.57;86.42;100142.91;5105652;28;20340;-73
2021/09/10 00:48:28;;;;;;;15.90;10.00;;;;;;;18.51;85.67;100135.69;5112178;28;20107;-73
2021/09/10 00:50:54;;;;;;;13.48;9.38;;;;;;;18.56;85.06;100143.94;5087035;28;20052;-73
2021/09/10 00:53:21;;;;;;;13.38;8.77;;;;;;;18.50;85.23;100142.09;5086151;28;20037;-73
2021/09/10 00:55:47;;;;;;;12.00;8.30;;;;;;;18.35;85.93;100147.63;5086279;28;20408;-73
2021/09/10 00:58:14;;;;;;;14.85;10.10;;;;;;;18.37;85.96;100147.41;5083385;28;20368;-73
2021/09/10 01:00:40;;;;;;;14.20;10.32;;;;;;;18.36;86.66;100151.97;5082413;28;20035;-73
2021/09/10 01:03:07;;;;;;;16.38;8.93;;;;;;;18.41;86.41;100143.31;5087758;28;20059;-73
2021/09/10 01:05:33;;;;;;;11.32;8.95;;;;;;;18.42;85.80;100143.09;5083024;28;20127;-73
2021/09/10 01:08:00;;;;;;;11.90;8.30;;;;;;;18.37;85.75;100128.66;5086434;28;20286;-73
2021/09/10 01:10:26;;;;;;;12.90;9.05;;;;;;;18.36;86.39;100141.22;5082608;28;20063;-74
2021/09/10 01:12:53;;;;;;;12.93;9.70;;;;;;;18.34;86.28;100124.53;5083995;28;20030;-73
2021/09/10 01:15:20;;;;;;;11.98;9.55;;;;;;;18.46;86.04;100127.44;5085800;28;20036;-74
2021/09/10 01:17:47;;;;;;;16.90;9.48;;;;;;;18.46;85.75;100120.22;5081515;28;20288;-73
2021/09/10 01:20:13;;;;;;;10.43;7.00;;;;;;;18.50;84.63;100123.31;5084616;28;20116;-73
2021/09/10 01:22:39;;;;;;;12.98;5.60;;;;;;;18.39;84.22;100110.50;5083739;28;20203;-74
2021/09/10 01:25:12;;;;;;;10.07;7.40;;;;;;;18.32;85.91;100112.34;5086433;28;20032;-74
2021/09/10 01:27:45;;;;;;;19.27;11.10;;;;;;;18.13;86.26;100120.16;5083348;28;20259;-74
2021/09/10 01:30:13;;;;;;;18.38;10.82;;;;;;;18.07;87.07;100118.28;5081365;28;20211;-74
2021/09/10 01:32:39;;;;;;;15.50;10.85;;;;;;;17.89;87.64;100117.19;5086528;28;20062;-74
2021/09/10 01:35:06;;;;;;;17.00;10.88;;;;;;;17.96;87.45;100113.50;5084706;28;20037;-73
2021/09/10 01:37:32;;;;;;;21.27;11.32;;;;;;;17.86;87.02;100096.97;5085312;28;20318;-74
2021/09/10 01:39:57;;;;;;;16.65;10.98;;;;;;;18.11;85.86;100119.53;5085558;28;20050;-73
2021/09/10 01:42:23;;;;;;;13.77;9.65;;;;;;;18.23;83.60;100124.28;5082752;28;20028;-73
2021/09/10 01:44:48;;;;;;;15.30;9.05;;;;;;;18.17;84.12;100124.06;5090052;28;20252;-74
2021/09/10 01:47:14;;;;;;;16.60;9.65;;;;;;;18.07;83.70;100122.81;5089555;28;20036;-73
2021/09/10 01:49:39;;;;;;;15.77;9.27;;;;;;;18.16;82.75;100129.63;5091797;28;20090;-74
2021/09/10 01:52:05;;;;;;;13.20;9.88;;;;;;;17.92;82.98;100136.34;5130823;27;20431;-73
2021/09/10 01:54:31;;;;;;;12.90;9.73;;;;;;;17.31;85.69;100138.84;5108206;27;20078;-73
2021/09/10 01:56:56;;;;;;;16.75;11.40;;;;;;;16.78;89.11;100109.03;5130881;27;20072;-73
2021/09/10 01:59:21;;;;;;;22.95;12.45;;;;;;;17.02;89.59;100134.53;5129611;27;20027;-73
2021/09/10 02:01:47;;;;;;;19.13;11.32;;;;;;;17.15;88.97;100134.63;5131820;27;20054;-73
2021/09/10 02:04:12;;;;;;;16.88;10.45;;;;;;;17.21;89.39;100143.72;5131629;27;20031;-73
2021/09/10 02:06:38;;;;;;;15.20;11.18;;;;;;;17.33;89.61;100142.16;5129759;27;20088;-73
2021/09/10 02:09:03;;;;;;;14.85;11.15;;;;;;;17.45;89.49;100145.94;5111397;27;20020;-73
2021/09/10 02:11:29;;;;;;;14.10;10.48;;;;;;;17.54;88.94;100151.97;5125251;27;20245;-74
2021/09/10 02:13:54;;;;;;;14.02;9.95;;;;;;;17.54;88.23;100128.69;5129050;27;20350;-73
2021/09/10 02:16:20;;;;;;;17.83;10.75;;;;;;;17.64;87.79;100133.69;5114984;27;20221;-73
2021/09/10 02:18:45;;;;;;;17.92;10.55;;;;;;;17.87;86.84;100141.50;5126148;27;20051;-73
2021/09/10 02:21:11;;;;;;;13.10;9.52;;;;;;;17.89;86.61;100138.59;5130195;27;20030;-73
2021/09/10 02:23:36;;;;;;;13.43;10.15;;;;;;;17.93;86.72;100139.88;5126188;27;20046;-74
2021/09/10 02:26:02;;;;;;;15.13;10.30;;;;;;;18.00;86.04;100127.31;5114107;27;20035;-73
2021/09/10 02:28:28;;;;;;;13.02;9.95;;;;;;;17.97;86.13;100117.81;5130910;27;20335;-73
2021/09/10 02:30:54;;;;;;;15.57;10.65;;;;;;;18.10;85.91;100133.13;5108478;27;20023;-73
2021/09/10 02:33:20;;;;;;;15.05;10.20;;;;;;;17.69;86.72;100083.09;5130978;27;20061;-73
2021/09/10 02:35:45;;;;;;;17.98;10.70;;;;;;;18.04;86.16;100133.91;5124887;27;20339;-73
2021/09/10 02:38:12;;;;;;;19.92;10.70;;;;;;;18.05;85.86;100114.13;5131395;27;20023;-72
2021/09/10 02:40:37;;;;;;;13.23;10.63;;;;;;;18.09;85.43;100115.38;5124395;27;20228;-74
2021/09/10 02:43:03;;;;;;;12.52;9.38;;;;;;;18.18;84.17;100120.38;5133591;27;20031;-73
2021/09/10 02:45:28;;;;;;;21.50;9.80;;;;;;;18.06;84.23;100119.28;5129482;27;20031;-73
2021/09/10 02:47:54;;;;;;;20.20;10.07;;;;;;;17.96;84.97;100123.38;5124367;27;20039;-73
2021/09/10 02:50:20;;;;;;;16.67;10.75;;;;;;;17.97;85.82;100122.34;5125564;27;20096;-73
2021/09/10 02:52:45;;;;;;;15.68;10.07;;;;;;;17.93;85.87;100119.25;5127190;27;20027;-73
2021/09/10 02:55:11;;;;;;;12.13;9.25;;;;;;;17.97;85.73;100120.50;5126651;27;20050;-73
2021/09/10 02:57:37;;;;;;;13.38;9.52;;;;;;;17.86;84.97;100096.97;5123142;27;20039;-74
2021/09/10 03:00:04;;;;;;;14.70;9.88;;;;;;;18.00;85.51;100125.47;5126700;27;20315;-73
2021/09/10 03:02:29;;;;;;;14.45;10.05;;;;;;;17.99;84.32;100118.44;5125259;27;20031;-73
2021/09/10 03:04:55;;;;;;;15.15;9.82;;;;;;;17.86;85.99;100113.03;5130401;27;20047;-74
2021/09/10 03:07:20;;;;;;;13.85;9.02;;;;;;;17.84;85.56;100117.78;5123766;27;20034;-73
2021/09/10 03:09:45;;;;;;;13.05;8.98;;;;;;;17.92;85.86;100117.59;5129239;27;20094;-74
2021/09/10 03:12:11;;;;;;;18.27;10.68;;;;;;;17.99;85.83;100128.34;5123788;27;20027;-73
2021/09/10 03:14:37;;;;;;;16.70;11.00;;;;;;;18.02;85.86;100136.81;5127120;27;20035;-74
2021/09/10 03:17:02;;;;;;;14.18;10.35;;;;;;;18.01;85.88;100131.66;5128049;27;20024;-74
2021/09/10 03:19:28;;;;;;;16.52;10.32;;;;;;;17.98;85.71;100126.69;5125983;27;20091;-73
2021/09/10 03:21:54;;;;;;;17.30;10.25;;;;;;;18.03;85.25;100134.94;5128892;27;20038;-74
2021/09/10 03:24:20;;;;;;;16.35;10.00;;;;;;;18.06;85.39;100140.75;5124636;27;20040;-74
2021/09/10 03:26:46;;;;;;;16.17;9.80;;;;;;;18.13;85.06;100143.44;5126399;27;20045;-74
2021/09/10 03:29:12;;;;;;;14.73;9.05;;;;;;;18.05;85.07;100130.22;5122730;27;20175;-74
2021/09/10 03:31:39;;;;;;;12.93;9.63;;;;;;;18.05;85.79;100143.63;5109037;27;20019;-74
2021/09/10 03:34:04;;;;;;;15.07;9.82;;;;;;;18.12;84.51;100134.56;5126953;27;20023;-73
2021/09/10 03:36:30;;;;;;;12.80;9.48;;;;;;;18.12;84.96;100145.28;5108045;28;20015;-73
2021/09/10 03:38:55;;;;;;;12.57;9.25;;;;;;;18.04;85.23;100148.16;5104798;27;20035;-73
2021/09/10 03:41:21;;;;;;;14.02;9.35;;;;;;;17.97;85.92;100135.75;5111704;27;20026;-73
2021/09/10 03:43:49;;;;;;;14.98;9.18;;;;;;;17.96;85.86;100134.94;5122296;27;20035;-74
2021/09/10 03:46:15;;;;;;;12.88;9.30;;;;;;;18.05;85.16;100136.41;5127378;27;20039;-73
2021/09/10 03:48:41;;;;;;;15.60;9.52;;;;;;;17.99;85.14;100137.22;5125086;27;20035;-74
2021/09/10 03:51:06;;;;;;;14.07;9.00;;;;;;;17.85;86.15;100130.16;5106992;27;20046;-73
2021/09/10 03:53:32;;;;;;;20.52;9.02;;;;;;;17.91;85.25;100123.16;5123661;27;20076;-73
2021/09/10 03:55:58;;;;;;;12.93;9.20;;;;;;;17.97;84.98;100136.59;5125002;27;20358;-73
2021/09/10 03:58:23;;;;;;;15.93;8.93;;;;;;;17.98;85.08;100126.69;5127449;27;20032;-74
2021/09/10 04:00:49;;;;;;;17.33;8.98;;;;;;;18.03;85.08;100135.78;5127299;27;20405;-73
2021/09/10 04:03:14;;;;;;;15.85;8.70;;;;;;;18.02;84.02;100120.72;5124933;27;20030;-73
2021/09/10 04:05:40;;;;;;;12.30;8.32;;;;;;;18.10;84.21;100139.31;5123576;27;20035;-74
2021/09/10 04:08:05;;;;;;;13.40;8.20;;;;;;;18.08;84.37;100144.03;5126933;27;20093;-73
2021/09/10 04:10:31;;;;;;;15.05;8.98;;;;;;;18.05;84.21;100139.09;5123365;27;20050;-74
2021/09/10 04:12:56;;;;;;;14.60;8.55;;;;;;;18.10;84.75;100144.66;5129936;27;20034;-73
2021/09/10 04:15:22;;;;;;;14.85;9.57;;;;;;;18.17;83.75;100147.38;5123359;27;20102;-73
2021/09/10 04:17:47;;;;;;;18.92;9.32;;;;;;;17.97;84.74;100130.41;5142731;27;20012;-73
2021/09/10 04:20:13;;;;;;;13.57;9.57;;;;;;;18.11;84.43;100143.63;5124811;27;20032;-73
2021/09/10 04:22:42;;;;;;;15.77;9.48;;;;;;;18.17;84.12;100132.13;5113519;28;20050;-73
2021/09/10 04:25:09;;;;;;;17.83;9.38;;;;;;;18.25;84.49;100141.81;5124018;27;20035;-73
2021/09/10 04:27:34;;;;;;;13.43;9.75;;;;;;;18.26;84.48;100142.66;5127225;27;20042;-73
2021/09/10 04:30:00;;;;;;;17.05;9.00;;;;;;;18.16;85.07;100143.88;5127012;27;20035;-73
2021/09/10 04:32:25;;;;;;;14.90;9.02;;;;;;;18.18;85.37;100133.75;5103580;28;20081;-74
2021/09/10 04:34:51;;;;;;;16.65;9.88;;;;;;;18.34;84.93;100147.81;5107034;28;20022;-73
2021/09/10 04:37:17;;;;;;;15.98;9.88;;;;;;;18.32;85.80;100148.03;5123364;27;20098;-73
2021/09/10 04:39:43;;;;;;;20.20;11.77;;;;;;;18.29;85.85;100144.94;5128210;27;20512;-74
2021/09/10 04:42:09;;;;;;;17.60;11.05;;;;;;;18.29;85.58;100142.25;5109932;28;20061;-73
2021/09/10 04:44:34;;;;;;;17.10;11.10;;;;;;;18.38;85.33;100157.94;5127043;27;20042;-74
2021/09/10 04:47:00;;;;;;;17.85;11.63;;;;;;;18.48;85.25;100152.19;5122312;27;20031;-73
2021/09/10 04:49:25;;;;;;;16.70;10.18;;;;;;;18.65;84.22;100147.28;5125661;28;20229;-73
2021/09/10 04:51:51;;;;;;;19.15;10.10;;;;;;;18.58;84.83;100149.09;5124014;28;20047;-73
2021/09/10 04:54:16;;;;;;;18.05;10.80;;;;;;;18.71;83.83;100151.84;5122598;28;20043;-73
2021/09/10 04:56:45;;;;;;;16.95;10.32;;;;;;;18.64;84.82;100151.00;5126501;28;20035;-73
2021/09/10 04:59:10;;;;;;;16.83;10.60;;;;;;;18.82;84.18;100151.25;5123036;28;20110;-73
2021/09/10 05:01:36;;;;;;;13.88;9.52;;;;;;;18.77;84.35;100143.81;5126292;28;20047;-73
2021/09/10 05:04:01;;;;;;;19.73;9.50;;;;;;;18.57;85.25;100134.03;5126191;28;20332;-74
2021/09/10 05:06:28;;;;;;;15.80;10.70;;;;;;;18.65;85.48;100149.97;5123685;28;20035;-74
2021/09/10 05:08:54;;;;;;;20.70;10.50;;;;;;;18.70;85.23;100145.66;5125098;28;20020;-74
2021/09/10 05:11:19;;;;;;;16.15;10.93;;;;;;;18.72;85.06;100137.41;5124389;28;20038;-74
2021/09/10 05:13:45;;;;;;;21.88;12.25;;;;;;;18.72;85.17;100146.28;5126134;27;20046;-74
2021/09/10 05:16:10;;;;;;;16.63;11.68;;;;;;;18.83;84.85;100139.50;5129348;27;20090;-73
2021/09/10 05:18:36;;;;;;;15.85;11.27;;;;;;;18.93;84.92;100142.59;5130887;27;20256;-74
2021/09/10 05:21:01;;;;;;;16.52;10.63;;;;;;;19.19;83.13;100135.56;5106812;27;20031;-74
2021/09/10 05:23:27;;;;;;;18.25;9.52;;;;;;;19.53;81.66;100140.69;5131015;27;20026;-74
2021/09/10 05:25:52;;;;;;;20.33;10.27;;;;;;;19.59;80.87;100128.28;5127015;27;20578;-74
2021/09/10 05:28:18;;;;;;;17.00;9.52;;;;;;;19.73;80.58;100133.38;5128871;27;20031;-74
2021/09/10 05:30:43;;;;;;;14.32;9.43;;;;;;;19.93;78.86;100137.88;5130164;27;20253;-74
2021/09/10 05:33:08;;;;;;;19.08;9.63;;;;;;;20.02;79.47;100139.28;5128589;27;20035;-74
2021/09/10 05:35:34;;;;;;;18.65;8.80;;;;;;;20.20;77.72;100139.41;5110662;27;20031;-74
2021/09/10 05:37:59;;;;;;;16.30;9.05;;;;;;;20.48;76.02;100147.16;5127030;27;20026;-74
2021/09/10 05:40:26;;;;;;;16.98;9.20;;;;;;;20.58;76.60;100149.34;5132316;27;20039;-74
2021/09/10 05:42:51;;;;;;;20.15;9.95;;;;;;;20.86;75.46;100151.66;5128132;27;20011;-73
2021/09/10 05:45:17;;;;;;;14.68;9.10;;;;;;;20.96;73.17;100149.31;5142770;27;20054;-74
2021/09/10 05:47:42;;;;;;;14.40;8.73;;;;;;;21.23;73.36;100153.44;5129952;27;20019;-74
2021/09/10 05:50:08;;;;;;;15.63;9.30;;;;;;;21.80;70.31;100137.91;5128288;27;20055;-74
2021/09/10 05:52:33;;;;;;;17.20;8.77;;;;;;;21.75;70.21;100155.81;5114411;27;20558;-73
2021/09/10 05:54:59;;;;;;;20.17;9.77;;;;;;;21.56;69.73;100141.50;5125396;27;20027;-74
2021/09/10 05:57:24;;;;;;;19.67;9.50;;;;;;;22.16;68.45;100147.88;5126882;27;20090;-74
2021/09/10 05:59:50;;;;;;;17.23;8.43;;;;;;;22.56;66.36;100147.31;5128533;27;20047;-74
2021/09/10 06:02:15;;;;;;;15.85;7.75;;;;;;;22.84;64.45;100142.13;5127781;27;20027;-74
2021/09/10 06:04:41;;;;;;;14.38;7.43;;;;;;;22.85;64.17;100151.88;5111274;27;20030;-74
2021/09/10 06:07:06;;;;;;;15.48;7.22;;;;;;;22.41;66.12;100146.94;5127182;27;20058;-74
2021/09/10 06:09:32;;;;;;;13.13;7.47;;;;;;;21.73;67.98;100153.34;5127230;27;20042;-74
2021/09/10 06:11:58;;;;;;;11.70;7.57;;;;;;;21.26;70.46;100147.59;5128037;27;20035;-74
2021/09/10 06:14:23;;;;;;;9.88;7.85;;;;;;;20.65;72.94;100142.88;5128935;27;20112;-75
2021/09/10 06:16:49;;;;;;;12.73;8.43;;;;;;;20.47;74.23;100150.88;5126305;27;20046;-74
2021/09/10 06:19:14;;;;;;;11.20;8.40;;;;;;;20.36;73.82;100138.09;5128488;27;20072;-74
2021/09/10 06:21:39;;;;;;;14.43;7.53;;;;;;;20.51;74.19;100146.72;5134190;27;20034;-74
2021/09/10 06:24:05;;;;;;;10.65;8.18;;;;;;;20.75;73.07;100146.97;5135511;27;20026;-75
2021/09/10 06:26:31;;;;;;;9.85;7.75;;;;;;;20.81;73.26;100148.81;5135848;27;20102;-74
2021/09/10 06:28:56;;;;;;;13.18;8.30;;;;;;;20.88;73.09;100154.97;5136545;27;20034;-75
2021/09/10 06:31:22;;;;;;;14.95;7.97;;;;;;;20.93;73.04;100155.13;5117518;27;20232;-73
2021/09/10 06:33:47;;;;;;;12.75;8.07;;;;;;;20.49;73.52;100148.78;5133493;27;20355;-73
2021/09/10 06:36:13;;;;;;;20.55;8.38;;;;;;;20.69;74.18;100152.16;5136807;27;20091;-73
2021/09/10 06:38:38;;;;;;;13.75;8.80;;;;;;;21.20;72.31;100139.56;5119651;27;20039;-74
2021/09/10 06:41:04;;;;;;;12.70;7.78;;;;;;;21.98;69.38;100155.97;5134892;27;20382;-73
2021/09/10 06:43:29;;;;;;;9.48;7.40;;;;;;;22.51;66.33;100160.69;5138060;27;20031;-73
2021/09/10 06:45:54;;;;;;;9.27;7.28;;;;;;;22.71;65.83;100125.28;5120557;27;20019;-73
2021/09/10 06:48:20;;;;;;;8.90;6.85;;;;;;;23.26;63.99;100144.78;5116834;27;20026;-74
2021/09/10 06:50:45;;;;;;;10.88;6.72;;;;;;;23.41;62.22;100144.28;5136601;27;20031;-74
2021/09/10 06:53:11;;;;;;;9.40;6.00;;;;;;;23.60;62.86;100145.00;5135507;27;20047;-74
2021/09/10 06:55:37;;;;;;;8.48;5.25;;;;;;;23.84;60.26;100155.53;5137101;27;20124;-74
2021/09/10 06:58:02;;;;;;;11.63;5.05;;;;;;;23.66;61.21;100157.59;5137105;27;20023;-74
2021/09/10 07:00:28;;;;;;;11.90;5.00;;;;;;;23.94;60.19;100156.84;5142811;27;20031;-74
2021/09/10 07:02:54;;;;;;;5.82;4.30;;;;;;;24.12;58.11;100165.59;5143669;27;20335;-75
2021/09/10 07:05:19;;;;;;;7.30;4.85;;;;;;;24.54;57.77;100154.50;5143246;27;20031;-75
2021/09/10 07:07:45;;;;;;;6.28;3.83;;;;;;;24.65;56.14;100153.63;5143327;27;20225;-74
2021/09/10 07:10:10;;;;;;;10.18;3.78;;;;;;;24.32;55.50;100143.56;5144059;27;20043;-75
2021/09/10 07:12:36;;;;;;;5.35;3.60;;;;;;;24.56;55.35;100146.16;5143195;27;20027;-75
2021/09/10 07:15:02;;;;;;;10.30;3.75;;;;;;;24.82;55.11;100161.75;5125006;27;20019;-74
2021/09/10 07:17:28;;;;;;;9.15;4.18;;;;;;;24.95;53.08;100136.25;5125478;27;20265;-74
2021/09/10 07:19:53;;;;;;;7.45;3.35;;;;;;;25.45;51.80;100136.25;5143254;27;20041;-73
2021/09/10 07:22:19;;;;;;;7.32;3.35;;;;;;;25.45;51.88;100139.78;5143708;27;20038;-74
2021/09/10 07:24:44;;;;;;;4.05;2.85;;;;;;;25.36;50.42;100137.75;5143564;27;20027;-74
2021/09/10 07:27:10;;;;;;;12.52;3.25;;;;;;;25.78;51.10;100138.88;5143344;27;20035;-75
2021/09/10 07:29:35;;;;;;;11.02;3.10;;;;;;;26.19;50.08;100150.25;5143288;27;20027;-74
2021/09/10 07:32:01;;;;;;;6.82;2.90;;;;;;;26.09;48.76;100137.38;5142765;27;20034;-74
2021/09/10 07:34:26;;;;;;;5.20;3.15;;;;;;;26.40;46.99;100148.59;5143327;27;20039;-74
2021/09/10 07:36:52;;;;;;;4.38;2.55;;;;;;;26.58;46.71;100136.53;5124278;27;20023;-74
2021/09/10 07:39:19;;;;;;;9.25;3.55;;;;;;;26.59;46.84;100135.47;5124580;27;20031;-75
2021/09/10 07:41:46;;;;;;;9.27;2.63;;;;;;;27.23;45.44;100139.03;5143030;27;20042;-74
2021/09/10 07:44:14;;;;;;;5.68;2.53;;;;;;;27.03;45.16;100128.78;5142947;27;20085;-73
2021/09/10 07:46:40;;;;;;;6.78;2.80;;;;;;;26.52;47.08;100141.09;5142852;27;20094;-73
2021/09/10 07:49:07;;;;;;;7.10;2.92;;;;;;;25.59;49.14;100129.38;5143281;27;20034;-73
2021/09/10 07:51:33;;;;;;;7.10;3.30;;;;;;;25.11;50.29;100141.72;5145220;27;20054;-73
2021/09/10 07:53:58;;;;;;;4.45;2.92;;;;;;;25.28;50.53;100140.88;5124344;27;20019;-74
2021/09/10 07:56:24;;;;;;;9.60;3.30;;;;;;;25.51;49.54;100134.41;5142785;27;20025;-74
2021/09/10 07:58:49;;;;;;;4.22;2.60;;;;;;;25.40;50.09;100138.88;5142602;27;20095;-74
2021/09/10 08:01:15;;;;;;;9.18;3.20;;;;;;;25.35;50.59;100139.63;5142702;27;20029;-74
2021/09/10 08:03:40;;;;;;;5.97;3.15;;;;;;;25.26;50.40;100143.00;5142696;27;20035;-73
2021/09/10 08:06:06;;;;;;;9.25;2.83;;;;;;;25.09;52.22;100149.28;5141411;27;20229;-73
2021/09/10 08:08:31;;;;;;;4.97;3.33;;;;;;;24.80;51.97;100134.09;5142624;27;20419;-73
2021/09/10 08:10:57;;;;;;;6.55;2.78;;;;;;;24.87;52.21;100147.47;5142670;27;20050;-74
2021/09/10 08:13:22;;;;;;;7.53;3.88;;;;;;;24.86;53.07;100151.25;5142452;27;20450;-73
2021/09/10 08:15:48;;;;;;;9.07;3.25;;;;;;;24.94;51.41;100145.44;5142688;27;20091;-74
2021/09/10 08:18:13;;;;;;;6.20;3.15;;;;;;;24.95;50.84;100138.94;5142094;27;20052;-74
2021/09/10 08:20:39;;;;;;;9.25;3.55;;;;;;;25.18;50.97;100149.66;5140951;27;20374;-73
2021/09/10 08:23:04;;;;;;;11.45;3.95;;;;;;;25.21;49.68;100148.34;5142468;27;20045;-74
2021/09/10 08:25:29;;;;;;;5.47;3.00;;;;;;;25.45;48.08;100136.25;5142699;27;20044;-73
2021/09/10 08:27:55;;;;;;;5.85;3.05;;;;;;;25.40;49.41;100142.41;5124047;27;20034;-74
2021/09/10 08:30:20;;;;;;;6.75;3.28;;;;;;;25.43;49.49;100133.78;5142380;27;20023;-74
2021/09/10 08:32:46;;;;;;;5.82;2.85;;;;;;;25.46;49.65;100122.44;5142384;27;20059;-73
2021/09/10 08:35:11;;;;;;;12.40;3.67;;;;;;;25.60;49.05;100128.31;5142247;27;20034;-73
2021/09/10 08:37:37;;;;;;;7.07;3.30;;;;;;;25.84;48.38;100128.91;5142037;27;20050;-74
2021/09/10 08:40:03;;;;;;;6.95;3.00;;;;;;;25.38;49.27;100125.56;5142325;27;20027;-74
2021/09/10 08:42:29;;;;;;;6.00;3.13;;;;;;;25.58;48.15;100130.44;5123550;27;20019;-74
2021/09/10 08:44:55;;;;;;;8.25;2.92;;;;;;;25.50;48.87;100122.75;5142073;27;20306;-73
2021/09/10 08:47:20;;;;;;;6.20;3.20;;;;;;;25.61;49.59;100129.13;5142289;27;20027;-74
2021/09/10 08:49:46;;;;;;;5.63;3.45;;;;;;;25.67;49.35;100120.84;5122895;27;20104;-74
2021/09/10 08:52:13;;;;;;;15.02;2.78;;;;;;;25.80;49.19;100116.09;5123684;27;20259;-74
2021/09/10 08:54:39;;;;;;;5.00;2.83;;;;;;;25.37;48.83;100118.50;5123431;27;20313;-74
2021/09/10 08:57:05;;;;;;;7.35;3.47;;;;;;;25.20;50.01;100122.31;5122247;27;20099;-74
2021/09/10 08:59:30;;;;;;;9.68;2.92;;;;;;;24.85;49.41;100107.09;5141978;27;20095;-74
2021/09/10 09:01:57;;;;;;;8.90;2.88;;;;;;;24.92;49.40;100115.88;5123844;27;20023;-74
2021/09/10 09:04:32;;;;;;;6.32;2.97;;;;;;;25.01;47.88;100100.91;5141606;27;20035;-73
2021/09/10 09:06:58;;;;;;;6.25;2.83;;;;;;;25.12;49.24;100108.13;5138618;27;20321;-73
2021/09/10 09:09:45;;;;;;;7.50;2.80;;;;;;;25.51;49.80;100107.31;5132050;27;20073;-73
2021/09/10 09:12:20;;;;;;;5.60;3.10;;;;;;;25.75;49.61;100108.72;5130583;27;20036;-74
2021/09/10 09:14:49;;;;;;;8.07;3.15;;;;;;;25.89;49.74;100106.44;5132798;27;20081;-74
2021/09/10 09:17:29;;;;;;;6.72;3.00;;;;;;;25.93;47.84;100102.16;5137966;27;20039;-74
2021/09/10 09:20:25;;;;;;;9.60;3.00;;;;;;;25.98;47.67;100094.06;5141319;27;20042;-74
2021/09/10 09:23:04;;;;;;;5.95;2.83;;;;;;;25.48;48.17;100088.81;5121897;27;20028;-74
2021/09/10 09:25:46;;;;;;;5.85;2.80;;;;;;;25.83;48.26;100099.31;5140502;27;20035;-73
2021/09/10 09:28:26;;;;;;;5.75;2.65;;;;;;;25.96;46.42;100101.66;5139828;27;20035;-74
2021/09/10 09:31:02;;;;;;;6.72;2.20;;;;;;;25.96;48.19;100090.78;5122385;27;20039;-74
2021/09/10 09:33:30;;;;;;;3.25;2.28;;;;;;;25.82;46.02;100086.84;5140192;27;20035;-74
2021/09/10 09:35:57;;;;;;;9.13;2.60;;;;;;;25.85;45.75;100092.56;5140588;27;20031;-74
2021/09/10 09:38:26;;;;;;;7.57;2.45;;;;;;;25.61;46.94;100088.44;5120726;27;20337;-74
2021/09/10 09:40:59;;;;;;;4.53;2.60;;;;;;;25.83;46.95;100083.06;5140663;27;20058;-73
2021/09/10 09:43:29;;;;;;;4.28;2.25;;;;;;;26.05;44.89;100078.44;5139156;27;20317;-74
2021/09/10 09:45:55;;;;;;;5.65;2.40;;;;;;;25.90;44.63;100079.06;5121928;27;20041;-74
2021/09/10 09:48:23;;;;;;;4.80;2.15;;;;;;;25.96;44.37;100078.03;5140605;27;20094;-74
2021/09/10 09:50:50;;;;;;;5.72;2.08;;;;;;;25.97;44.52;100076.16;5141173;27;20100;-74
2021/09/10 09:53:16;;;;;;;8.07;1.90;;;;;;;26.07;42.83;100070.88;5124916;27;20046;-74
2021/09/10 09:55:44;;;;;;;7.15;2.00;;;;;;;26.04;43.55;100063.22;5121988;27;20031;-74
2021/09/10 09:58:10;;;;;;;5.78;2.17;;;;;;;25.76;42.96;100065.06;5139218;27;20288;-74
2021/09/10 10:00:38;;;;;;;7.47;2.22;;;;;;;25.69;41.73;100055.50;5142747;27;20038;-74
2021/09/10 10:03:06;;;;;;;7.80;1.95;;;;;;;25.89;42.02;100057.63;5144986;27;20042;-74
2021/09/10 10:05:34;;;;;;;5.50;2.05;;;;;;;25.81;40.50;100047.22;5144892;27;20034;-75
2021/09/10 10:08:04;;;;;;;9.88;2.25;;;;;;;25.60;39.88;100056.97;5144807;27;20035;-74
2021/09/10 10:10:37;;;;;;;7.80;2.30;;;;;;;25.38;39.96;100048.84;5144969;27;20027;-74
2021/09/10 10:13:05;;;;;;;6.07;2.10;;;;;;;25.29;38.21;100061.19;5126221;27;20019;-74
2021/09/10 10:15:31;;;;;;;5.43;2.00;;;;;;;25.32;37.74;100061.53;5145186;27;20039;-73
2021/09/10 10:17:58;;;;;;;4.80;2.15;;;;;;;24.86;38.05;100051.03;5144856;27;20058;-74
2021/09/10 10:20:45;;;;;;;6.10;2.00;;;;;;;24.59;39.73;100056.31;5144750;27;20035;-74
2021/09/10 10:23:41;;;;;;;7.43;2.03;;;;;;;24.86;39.68;100062.69;5144940;27;20137;-73
2021/09/10 10:26:11;;;;;;;6.60;1.90;;;;;;;24.68;39.62;100052.13;5125702;27;20252;-74
2021/09/10 10:28:48;;;;;;;6.60;2.13;;;;;;;24.48;40.24;100058.84;5138988;27;20221;-74
2021/09/10 10:31:15;;;;;;;5.78;1.50;;;;;;;24.85;40.75;100055.66;5143369;27;20148;-74
2021/09/10 10:34:03;;;;;;;5.07;2.22;;;;;;;25.13;39.19;100046.63;5143970;27;20015;-74
2021/09/10 10:36:37;;;;;;;5.45;2.13;;;;;;;25.31;38.97;100050.94;5142736;27;20039;-75
2021/09/10 10:39:09;;;;;;;;;;;;;;;25.02;32.16;100047.56;5143708;27;20034;-73
2021/09/10 10:41:53;;;;;;;5.00;1.80;;;;;;;25.10;34.92;100049.84;5125155;27;19956;-74
2021/09/10 10:44:34;;;;;;;11.57;1.75;;;;;;;24.88;33.71;100049.72;5150456;27;20329;-73
2021/09/10 10:47:07;;;;;;;4.60;1.83;;;;;;;24.78;35.18;100044.16;5127120;27;20058;-74
2021/09/10 10:49:34;;;;;;;4.70;1.40;;;;;;;24.90;31.46;100042.16;5149922;27;20046;-73
2021/09/10 10:52:00;;;;;;;2.70;1.70;;;;;;;24.81;34.83;100036.34;5124212;27;20038;-73
2021/09/10 10:54:30;;;;;;;4.57;1.48;;;;;;;24.91;33.29;100027.56;5125254;27;20332;-75
2021/09/10 10:56:59;;;;;;;7.85;1.95;;;;;;;24.88;34.28;100038.06;5142947;27;20033;-74
2021/09/10 10:59:25;;;;;;;6.63;1.98;;;;;;;24.92;32.84;100040.03;5143652;27;20027;-74
2021/09/10 11:04:47;;;;;;;3.85;1.70;;;;;;;25.05;33.47;100028.09;5143247;27;20031;-74
2021/09/10 11:07:23;;;;;;;4.15;1.52;;;;;;;25.20;33.61;100039.13;5143734;27;20054;-73
2021/09/10 11:10:14;;;;;;;7.25;2.58;;;;;;;25.14;32.94;100040.97;5143854;27;20300;-74
2021/09/10 11:12:41;;;;;;;3.83;1.65;;;;;;;25.21;32.32;100027.22;5142194;27;20377;-74
2021/09/10 11:15:26;;;;;;;4.78;1.95;;;;;;;25.37;32.53;100025.53;5143581;27;20062;-75
2021/09/10 11:18:09;;;;;;;5.60;1.67;;;;;;;25.28;33.94;100027.03;5141872;27;20092;-75
2021/09/10 11:20:44;;;;;;;6.50;1.75;;;;;;;25.01;27.75;100024.25;5142473;27;20054;-73
2021/09/10 11:23:12;;;;;;;3.80;1.45;;;;;;;24.90;32.30;100020.50;5125304;27;20023;-73